Time;durP1;ratioP1;P1;durP2;ratioP2;P2;SDS_P1;SDS_P2;PMS_P1;PMS_P2;Temp;Humidity;BMP_temperature;BMP_pressure;BME280_temperature;BME280_humidity;BME280_pressure;Samples;Min_cycle;Max_cycle;Signal;HPM_P1;HPM_P2
2023/10/20 00:01:52;;;;;;;;;;;;;;;;;;5118182;28;19914;-68
2023/10/20 00:04:17;;;;;;;;;;;;;;;;;;5118186;28;19960;-68
2023/10/20 00:06:42;;;;;;;;;;;;;;;;;;5117533;28;20363;-69
2023/10/20 00:09:18;;;;;;;;;;;;;;;;;;5118653;28;19907;-68
2023/10/20 00:11:43;;;;;;;;;;;;;;;;;;5117946;28;19908;-68
2023/10/20 00:14:08;;;;;;;;;;;;;;;;;;5117993;28;20280;-68
2023/10/20 00:16:33;;;;;;;;;;;;;;;;;;5117910;28;20309;-69
2023/10/20 00:19:01;;;;;;;;;;;;;;;;;;5117247;28;19923;-68
2023/10/20 00:21:26;;;;;;;;;;;;;;;;;;5117744;28;20264;-69
2023/10/20 00:23:51;;;;;;;;;;;;;;;;;;5117465;28;19908;-68
2023/10/20 00:26:17;;;;;;;;;;;;;;;;;;5117759;28;19908;-68
2023/10/20 00:28:42;;;;;;;;;;;;;;;;;;5117304;28;19908;-69
2023/10/20 00:31:07;;;;;;;;;;;;;;;;;;5117176;28;19907;-69
2023/10/20 00:33:32;;;;;;;;;;;;;;;;;;5117280;28;20279;-69
2023/10/20 00:35:58;;;;;;;;;;;;;;;;;;5117528;28;19914;-69
2023/10/20 00:38:23;;;;;;;;;;;;;;;;;;5116803;28;20364;-69
2023/10/20 00:40:48;;;;;;;;;;;;;;;;;;5117190;28;19914;-68
2023/10/20 00:43:13;;;;;;;;;;;;;;;;;;5117141;28;20352;-69
2023/10/20 00:45:40;;;;;;;;;;;;;;;;;;5117347;28;20360;-69
2023/10/20 00:48:06;;;;;;;;;;;;;;;;;;5116926;28;19908;-69
2023/10/20 00:50:31;;;;;;;;;;;;;;;;;;5117264;28;19965;-69
2023/10/20 00:52:56;;;;;;;;;;;;;;;;;;5116843;28;19908;-69
2023/10/20 00:55:21;;;;;;;;;;;;;;;;;;5116620;28;20261;-69
2023/10/20 00:57:47;;;;;;;;;;;;;;;;;;5116425;28;19920;-69
2023/10/20 01:00:13;;;;;;;;;;;;;;;;;;5116502;28;20390;-69
2023/10/20 01:02:38;;;;;;;;;;;;;;;;;;5116432;28;19908;-69
2023/10/20 01:05:08;;;;;;;;;;;;;;;;;;5117275;28;19908;-69
2023/10/20 01:07:33;;;;;;;;;;;;;;;;;;5117143;28;19907;-69
2023/10/20 01:09:59;;;;;;;;;;;;;;;;;;5116508;28;20348;-69
2023/10/20 01:12:24;;;;;;;;;;;;;;;;;;5116489;28;19920;-69
2023/10/20 01:14:50;;;;;;;;;;;;;;;;;;5116684;28;20387;-69
2023/10/20 01:17:15;;;;;;;;;;;;;;;;;;5117019;28;20017;-68
2023/10/20 01:19:40;;;;;;;;;;;;;;;;;;5116459;28;19912;-69
2023/10/20 01:22:06;;;;;;;;;;;;;;;;;;5116250;28;19912;-69
2023/10/20 01:24:31;;;;;;;;;;;;;;;;;;5116030;28;19911;-69
2023/10/20 01:26:56;;;;;;;;;;;;;;;;;;5116237;28;19914;-69
2023/10/20 01:29:21;;;;;;;;;;;;;;;;;;5116162;28;19908;-69
2023/10/20 01:31:46;;;;;;;;;;;;;;;;;;5116948;28;19907;-68
2023/10/20 01:34:11;;;;;;;;;;;;;;;;;;5116411;28;19976;-69
2023/10/20 01:36:37;;;;;;;;;;;;;;;;;;5115753;28;19907;-69
2023/10/20 01:39:03;;;;;;;;;;;;;;;;;;5115662;28;19912;-69
2023/10/20 01:41:28;;;;;;;;;;;;;;;;;;5115654;28;20406;-69
2023/10/20 01:43:53;;;;;;;;;;;;;;;;;;5115875;28;19908;-69
2023/10/20 01:46:18;;;;;;;;;;;;;;;;;;5115882;28;19970;-68
2023/10/20 01:48:44;;;;;;;;;;;;;;;;;;5115860;28;20333;-69
2023/10/20 01:51:09;;;;;;;;;;;;;;;;;;5115694;28;20501;-69
2023/10/20 01:53:34;;;;;;;;;;;;;;;;;;5116237;28;19908;-68
2023/10/20 01:55:59;;;;;;;;;;;;;;;;;;5114375;28;19916;-69
2023/10/20 01:58:24;;;;;;;;;;;;;;;;;;5116196;28;19927;-69
2023/10/20 02:00:49;;;;;;;;;;;;;;;;;;5116135;28;19908;-68
2023/10/20 02:03:15;;;;;;;;;;;;;;;;;;5115259;28;19912;-68
2023/10/20 02:05:40;;;;;;;;;;;;;;;;;;5115250;28;19907;-69
2023/10/20 02:08:05;;;;;;;;;;;;;;;;;;5115723;28;19968;-68
2023/10/20 02:10:31;;;;;;;;;;;;;;;;;;5115723;28;19912;-69
2023/10/20 02:12:56;;;;;;;;;;;;;;;;;;5115843;28;19908;-69
2023/10/20 02:15:21;;;;;;;;;;;;;;;;;;5115631;28;20265;-68
2023/10/20 02:17:46;;;;;;;;;;;;;;;;;;5115006;28;19960;-68
2023/10/20 02:20:11;;;;;;;;;;;;;;;;;;5114965;28;19908;-68
2023/10/20 02:22:36;;;;;;;;;;;;;;;;;;5115100;28;20360;-68
2023/10/20 02:25:01;;;;;;;;;;;;;;;;;;5114886;28;19907;-68
2023/10/20 02:27:28;;;;;;;;;;;;;;;;;;5115123;28;20260;-68
2023/10/20 02:29:53;;;;;;;;;;;;;;;;;;5113826;28;20339;-68
2023/10/20 02:32:18;;;;;;;;;;;;;;;;;;5114779;28;19951;-68
2023/10/20 02:34:44;;;;;;;;;;;;;;;;;;5114752;28;19908;-68
2023/10/20 02:37:12;;;;;;;;;;;;;;;;;;5115002;28;19918;-68
2023/10/20 02:39:37;;;;;;;;;;;;;;;;;;5115396;28;20353;-68
2023/10/20 02:42:02;;;;;;;;;;;;;;;;;;5114617;28;19908;-68
2023/10/20 02:44:27;;;;;;;;;;;;;;;;;;5114591;28;19912;-68
2023/10/20 02:46:52;;;;;;;;;;;;;;;;;;5114542;28;19914;-68
2023/10/20 02:49:17;;;;;;;;;;;;;;;;;;5113509;28;19943;-69
2023/10/20 02:51:43;;;;;;;;;;;;;;;;;;5114703;28;19915;-68
2023/10/20 02:54:09;;;;;;;;;;;;;;;;;;5114630;28;19993;-69
2023/10/20 02:56:35;;;;;;;;;;;;;;;;;;5114851;28;20368;-69
2023/10/20 02:59:00;;;;;;;;;;;;;;;;;;5114329;28;19978;-68
2023/10/20 03:01:26;;;;;;;;;;;;;;;;;;5114384;28;20257;-69
2023/10/20 03:03:51;;;;;;;;;;;;;;;;;;5115249;28;19908;-68
2023/10/20 03:06:16;;;;;;;;;;;;;;;;;;5114948;28;19915;-68
2023/10/20 03:08:42;;;;;;;;;;;;;;;;;;5115005;28;19943;-68
2023/10/20 03:11:08;;;;;;;;;;;;;;;;;;5114577;28;19915;-69
2023/10/20 03:13:33;;;;;;;;;;;;;;;;;;5114922;28;19915;-69
2023/10/20 03:15:58;;;;;;;;;;;;;;;;;;5115130;28;19908;-69
2023/10/20 03:18:23;;;;;;;;;;;;;;;;;;5113762;28;19915;-69
2023/10/20 03:20:48;;;;;;;;;;;;;;;;;;5114235;28;20368;-69
2023/10/20 03:23:14;;;;;;;;;;;;;;;;;;5114764;28;19908;-69
2023/10/20 03:25:40;;;;;;;;;;;;;;;;;;5114561;28;19912;-69
2023/10/20 03:28:05;;;;;;;;;;;;;;;;;;5114502;28;20375;-68
2023/10/20 03:30:31;;;;;;;;;;;;;;;;;;5114428;28;20341;-69
2023/10/20 03:32:59;;;;;;;;;;;;;;;;;;5114382;28;19908;-69
2023/10/20 03:35:24;;;;;;;;;;;;;;;;;;5114626;28;19915;-68
2023/10/20 03:37:51;;;;;;;;;;;;;;;;;;5114319;28;20275;-69
2023/10/20 03:40:16;;;;;;;;;;;;;;;;;;5114623;28;19908;-68
2023/10/20 03:42:42;;;;;;;;;;;;;;;;;;5114329;28;19914;-69
2023/10/20 03:45:09;;;;;;;;;;;;;;;;;;5114335;28;19907;-68
2023/10/20 03:47:38;;;;;;;;;;;;;;;;;;5114449;28;19938;-69
2023/10/20 03:50:03;;;;;;;;;;;;;;;;;;5114165;28;19968;-68
2023/10/20 03:52:29;;;;;;;;;;;;;;;;;;5113808;28;19908;-69
2023/10/20 03:54:54;;;;;;;;;;;;;;;;;;5114115;28;19998;-69
2023/10/20 03:57:19;;;;;;;;;;;;;;;;;;5114131;28;19912;-69
2023/10/20 03:59:44;;;;;;;;;;;;;;;;;;5114515;28;19919;-69
2023/10/20 04:02:10;;;;;;;;;;;;;;;;;;5114183;28;20286;-68
2023/10/20 04:04:35;;;;;;;;;;;;;;;;;;5114622;28;19908;-69
2023/10/20 04:07:01;;;;;;;;;;;;;;;;;;5116649;28;19965;-69
2023/10/20 04:09:29;;;;;;;;;;;;;;;;;;5117818;28;20011;-68
2023/10/20 04:11:54;;;;;;;;;;;;;;;;;;5117480;28;20360;-68
2023/10/20 04:14:20;;;;;;;;;;;;;;;;;;5117828;27;19995;-68
2023/10/20 04:16:45;;;;;;;;;;;;;;;;;;5117427;28;19908;-68
2023/10/20 04:19:12;;;;;;;;;;;;;;;;;;5117211;28;19916;-68
2023/10/20 04:21:38;;;;;;;;;;;;;;;;;;5117256;28;19911;-68
2023/10/20 04:24:04;;;;;;;;;;;;;;;;;;5117952;28;19915;-68
2023/10/20 04:26:31;;;;;;;;;;;;;;;;;;5116344;28;19911;-68
2023/10/20 05:01:20;;;;;;;;;;;;;;;;;;5116764;28;19968;-68
2023/10/20 05:03:45;;;;;;;;;;;;;;;;;;5116830;28;19912;-68
2023/10/20 05:06:23;;;;;;;;;;;;;;;;;;5116934;28;20392;-69
2023/10/20 05:08:48;;;;;;;;;;;;;;;;;;5116677;28;19915;-68
2023/10/20 05:11:13;;;;;;;;;;;;;;;;;;5117198;28;19908;-68
2023/10/20 05:13:39;;;;;;;;;;;;;;;;;;5116529;28;20276;-68
2023/10/20 05:16:04;;;;;;;;;;;;;;;;;;5116799;28;19992;-68
2023/10/20 05:18:29;;;;;;;;;;;;;;;;;;5115394;28;19920;-68
2023/10/20 05:20:55;;;;;;;;;;;;;;;;;;5116728;28;20348;-68
2023/10/20 05:23:20;;;;;;;;;;;;;;;;;;5116323;28;19921;-68
2023/10/20 05:25:45;;;;;;;;;;;;;;;;;;5117196;28;19908;-68
2023/10/20 05:28:10;;;;;;;;;;;;;;;;;;5116204;28;19953;-68
2023/10/20 05:30:36;;;;;;;;;;;;;;;;;;5116396;28;19965;-68
2023/10/20 05:33:01;;;;;;;;;;;;;;;;;;5115241;28;19908;-68
2023/10/20 05:35:26;;;;;;;;;;;;;;;;;;5116128;28;19908;-68
2023/10/20 05:37:51;;;;;;;;;;;;;;;;;;5114763;28;20317;-68
2023/10/20 05:40:16;;;;;;;;;;;;;;;;;;5115964;28;20378;-68
2023/10/20 05:42:41;;;;;;;;;;;;;;;;;;5115706;28;19908;-68
2023/10/20 05:45:09;;;;;;;;;;;;;;;;;;5115971;28;19907;-68
2023/10/20 05:47:35;;;;;;;;;;;;;;;;;;5115858;28;19994;-68
2023/10/20 05:50:01;;;;;;;;;;;;;;;;;;5116705;28;20060;-68
2023/10/20 05:52:26;;;;;;;;;;;;;;;;;;5116405;28;19908;-69
2023/10/20 05:54:52;;;;;;;;;;;;;;;;;;5115711;28;20263;-68
2023/10/20 05:57:17;;;;;;;;;;;;;;;;;;5115611;28;20326;-69
2023/10/20 05:59:42;;;;;;;;;;;;;;;;;;5115920;28;20336;-69
2023/10/20 06:02:07;;;;;;;;;;;;;;;;;;5115601;28;19990;-68
2023/10/20 06:04:33;;;;;;;;;;;;;;;;;;5115151;28;19915;-68
2023/10/20 06:06:58;;;;;;;;;;;;;;;;;;5115467;28;19907;-68
2023/10/20 06:09:25;;;;;;;;;;;;;;;;;;5115474;28;19907;-69
2023/10/20 06:11:50;;;;;;;;;;;;;;;;;;5115349;28;20002;-69
2023/10/20 06:14:15;;;;;;;;;;;;;;;;;;5115007;28;19985;-69
2023/10/20 06:16:42;;;;;;;;;;;;;;;;;;5114881;28;19908;-68
2023/10/20 06:19:07;;;;;;;;;;;;;;;;;;5115205;28;19916;-69
2023/10/20 06:21:32;;;;;;;;;;;;;;;;;;5115554;28;19908;-68
2023/10/20 06:23:57;;;;;;;;;;;;;;;;;;5115368;28;19914;-69
2023/10/20 06:26:22;;;;;;;;;;;;;;;;;;5115438;28;19915;-68
2023/10/20 06:28:47;;;;;;;;;;;;;;;;;;5114432;28;20375;-69
2023/10/20 06:31:27;;;;;;;;;;;;;;;;;;5115381;28;19922;-68
2023/10/20 06:34:00;;;;;;;;;;;;;;;;;;5115093;28;19915;-69
2023/10/20 06:36:26;;;;;;;;;;;;;;;;;;5114721;28;19956;-69
2023/10/20 06:38:51;;;;;;;;;;;;;;;;;;5114582;28;19916;-69
2023/10/20 06:41:16;;;;;;;;;;;;;;;;;;5114654;28;19983;-69
2023/10/20 06:43:42;;;;;;;;;;;;;;;;;;5114857;28;19908;-68
2023/10/20 06:46:07;;;;;;;;;;;;;;;;;;5115626;28;19908;-68
2023/10/20 06:48:32;;;;;;;;;;;;;;;;;;5114567;28;19907;-69
2023/10/20 06:50:57;;;;;;;;;;;;;;;;;;5114530;28;19915;-68
2023/10/20 06:53:22;;;;;;;;;;;;;;;;;;5114700;28;19907;-68
2023/10/20 06:55:48;;;;;;;;;;;;;;;;;;5114714;28;20433;-69
2023/10/20 06:58:13;;;;;;;;;;;;;;;;;;5114692;28;19920;-69
2023/10/20 07:00:38;;;;;;;;;;;;;;;;;;5115046;28;19911;-69
2023/10/20 07:03:04;;;;;;;;;;;;;;;;;;5114797;28;19912;-69
2023/10/20 07:05:31;;;;;;;;;;;;;;;;;;5114679;28;20372;-69
2023/10/20 07:07:56;;;;;;;;;;;;;;;;;;5114550;28;19914;-68
2023/10/20 07:10:24;;;;;;;;;;;;;;;;;;5114629;28;19959;-68
2023/10/20 07:12:49;;;;;;;;;;;;;;;;;;5114601;28;19915;-69
2023/10/20 07:15:16;;;;;;;;;;;;;;;;;;5114881;28;19908;-69
2023/10/20 07:17:41;;;;;;;;;;;;;;;;;;5114242;28;19908;-69
2023/10/20 07:20:06;;;;;;;;;;;;;;;;;;5114197;28;19923;-69
2023/10/20 07:22:32;;;;;;;;;;;;;;;;;;5115342;28;19965;-69
2023/10/20 07:24:57;;;;;;;;;;;;;;;;;;5114804;28;19986;-68
2023/10/20 07:27:22;;;;;;;;;;;;;;;;;;5115056;28;19915;-69
2023/10/20 07:29:47;;;;;;;;;;;;;;;;;;5114747;28;20311;-69
2023/10/20 07:32:12;;;;;;;;;;;;;;;;;;5114749;28;19931;-69
2023/10/20 07:34:37;;;;;;;;;;;;;;;;;;5115174;28;19951;-68
2023/10/20 07:37:03;;;;;;;;;;;;;;;;;;5114412;28;19907;-70
2023/10/20 07:39:28;;;;;;;;;;;;;;;;;;5114636;28;20291;-68
2023/10/20 07:41:53;;;;;;;;;;;;;;;;;;5117018;28;19964;-69
2023/10/20 07:44:18;;;;;;;;;;;;;;;;;;5118431;28;20340;-68
2023/10/20 07:46:44;;;;;;;;;;;;;;;;;;5118862;28;19908;-69
